Terminal Aerodrome Forecast
Issued by NWS Lake Charles, LA

Home | Current Version | Previous Version | Text Only | Print | Product List | Glossary On
Versions: 1 2 3 4 5 6 7 8 9 10 11 12 13 14 15 16 17 18
000
FTUS44 KLCH 241121
TAFLCH
TAF
KLCH 241121Z 2412/2512 06005KT P6SM SKC
      TEMPO 2412/2413 5SM BR
     FM241400 09007KT P6SM FEW035
     FM241900 13008KT P6SM VCTS SCT040CB
     FM250200 VRB03KT P6SM SCT250=

USA.gov is the U.S. government's official web portal to all federal, state and local government web resources and services.